<?xml version="1.0" encoding="UTF-8" standalone="no" ?>
<gpx xmlns="http://www.topografix.com/GPX/1/1" xmlns:xsi="http://www.w3.org/2001/XMLSchema-instance" xsi:schemaLocation="http://www.topografix.com/GPX/1/1 http://www.topografix.com/GPX/1/1/gpx.xsd" version="1.1" creator="VisuGPX - https://www.visugpx.com">
  <metadata>
    <name>Arèches Cuvy 25 Janvier</name>
    <desc><![CDATA[Télésièges en Montée et tout schuss en descente !
belle journée.
Garmin
Grenam13]]></desc>
  </metadata>
  <trk>
    <name><![CDATA[ACTIVE LOG154423]]></name>
    <trkseg>
      <trkpt lat="45.69271" lon="6.56333">
        <ele>1008.344</ele>
        <time>2012-01-25T14:44:23Z</time>
      </trkpt>
      <trkpt lat="45.69255" lon="6.5631">
        <ele>1008.994</ele>
        <time>2012-01-25T14:44:33Z</time>
      </trkpt>
      <trkpt lat="45.69249" lon="6.56306">
        <ele>1008.893</ele>
        <time>2012-01-25T14:44:43Z</time>
      </trkpt>
      <trkpt lat="45.69253" lon="6.56301">
        <ele>1009.129</ele>
        <time>2012-01-25T14:44:53Z</time>
      </trkpt>
      <trkpt lat="45.69258" lon="6.56285">
        <ele>1009.015</ele>
        <time>2012-01-25T14:45:03Z</time>
      </trkpt>
      <trkpt lat="45.69259" lon="6.56284">
        <ele>1008.909</ele>
        <time>2012-01-25T14:45:13Z</time>
      </trkpt>
      <trkpt lat="45.69251" lon="6.56297">
        <ele>1008.962</ele>
        <time>2012-01-25T14:45:23Z</time>
      </trkpt>
      <trkpt lat="45.69238" lon="6.56277">
        <ele>1006.851</ele>
        <time>2012-01-25T14:45:33Z</time>
      </trkpt>
      <trkpt lat="45.69238" lon="6.5627">
        <ele>1005.184</ele>
        <time>2012-01-25T14:45:43Z</time>
      </trkpt>
      <trkpt lat="45.69237" lon="6.56263">
        <ele>1005.094</ele>
        <time>2012-01-25T14:45:53Z</time>
      </trkpt>
      <trkpt lat="45.69234" lon="6.56257">
        <ele>1003.804</ele>
        <time>2012-01-25T14:46:03Z</time>
      </trkpt>
      <trkpt lat="45.69231" lon="6.56251">
        <ele>1003.601</ele>
        <time>2012-01-25T14:46:13Z</time>
      </trkpt>
      <trkpt lat="45.69309" lon="6.56289">
        <ele>1004.491</ele>
        <time>2012-01-25T14:46:23Z</time>
      </trkpt>
      <trkpt lat="45.69315" lon="6.56284">
        <ele>1003.701</ele>
        <time>2012-01-25T14:46:33Z</time>
      </trkpt>
      <trkpt lat="45.69293" lon="6.56256">
        <ele>1004.14</ele>
        <time>2012-01-25T14:46:43Z</time>
      </trkpt>
      <trkpt lat="45.69293" lon="6.56255">
        <ele>1003.852</ele>
        <time>2012-01-25T14:46:44Z</time>
      </trkpt>
      <trkpt lat="45.69291" lon="6.56251">
        <ele>1003.984</ele>
        <time>2012-01-25T14:46:53Z</time>
      </trkpt>
      <trkpt lat="45.69292" lon="6.56255">
        <ele>1003.506</ele>
        <time>2012-01-25T14:47:03Z</time>
      </trkpt>
      <trkpt lat="45.69293" lon="6.56255">
        <ele>1004.428</ele>
        <time>2012-01-25T14:47:13Z</time>
      </trkpt>
    </trkseg>
  </trk>
</gpx>